Time;durP1;ratioP1;P1;durP2;ratioP2;P2;SDS_P1;SDS_P2;PMS_P1;PMS_P2;Temp;Humidity;BMP_temperature;BMP_pressure;BME280_temperature;BME280_humidity;BME280_pressure;Samples;Min_cycle;Max_cycle;Signal;HPM_P1;HPM_P2
2022/03/09 00:01:58;;;;;;;4.63;3.20;;;;;;;;;;4452674;28;20041;-65
2022/03/09 00:04:09;;;;;;;4.23;3.23;;;;;;;;;;4453135;28;20038;-65
2022/03/09 00:06:19;;;;;;;4.33;3.40;;;;;;;;;;4451920;28;29211;-65
2022/03/09 00:08:29;;;;;;;5.40;3.40;;;;;;;;;;4452462;28;20034;-65
2022/03/09 00:10:40;;;;;;;4.83;3.43;;;;;;;;;;4453615;28;24946;-65
2022/03/09 00:12:52;;;;;;;4.07;3.00;;;;;;;;;;4453001;28;20045;-65
2022/03/09 00:15:02;;;;;;;5.07;3.10;;;;;;;;;;4452870;28;21006;-65
2022/03/09 00:17:13;;;;;;;4.37;3.33;;;;;;;;;;4437985;28;20039;-65
2022/03/09 00:19:24;;;;;;;4.40;3.13;;;;;;;;;;4452496;28;20034;-65
2022/03/09 00:21:34;;;;;;;4.63;3.35;;;;;;;;;;4434204;28;20842;-65
2022/03/09 00:23:45;;;;;;;4.13;3.20;;;;;;;;;;4435801;28;35308;-65
2022/03/09 00:25:55;;;;;;;4.17;3.30;;;;;;;;;;4452396;28;20058;-65
2022/03/09 00:28:06;;;;;;;4.37;3.33;;;;;;;;;;4451521;28;20126;-65
2022/03/09 00:30:17;;;;;;;3.72;2.97;;;;;;;;;;4436945;28;20211;-65
2022/03/09 00:32:28;;;;;;;5.37;3.27;;;;;;;;;;4453376;28;20031;-65
2022/03/09 00:34:39;;;;;;;4.90;3.23;;;;;;;;;;4454463;28;36148;-65
2022/03/09 00:36:49;;;;;;;4.85;3.22;;;;;;;;;;4453918;28;20081;-65
2022/03/09 00:39:00;;;;;;;4.60;3.23;;;;;;;;;;4452483;28;20042;-65
2022/03/09 00:41:10;;;;;;;4.10;3.07;;;;;;;;;;4454422;28;20043;-65
2022/03/09 00:43:20;;;;;;;3.60;2.80;;;;;;;;;;4453731;28;20038;-65
2022/03/09 00:45:31;;;;;;;4.23;3.00;;;;;;;;;;4454174;28;20035;-65
2022/03/09 00:47:42;;;;;;;3.80;3.20;;;;;;;;;;4453501;28;20262;-65
2022/03/09 00:49:52;;;;;;;5.17;3.17;;;;;;;;;;4435387;28;20063;-65
2022/03/09 00:52:03;;;;;;;4.33;3.10;;;;;;;;;;4435013;28;20502;-65
2022/03/09 00:54:13;;;;;;;3.97;2.80;;;;;;;;;;4432577;28;20028;-65
2022/03/09 00:56:24;;;;;;;4.37;3.00;;;;;;;;;;4453644;28;20114;-65
2022/03/09 00:58:34;;;;;;;3.80;2.90;;;;;;;;;;4453398;28;21322;-66
2022/03/09 01:00:45;;;;;;;4.83;3.53;;;;;;;;;;4453648;28;20466;-65
2022/03/09 01:02:55;;;;;;;4.30;3.30;;;;;;;;;;4453662;28;20869;-65
2022/03/09 01:05:06;;;;;;;4.70;3.23;;;;;;;;;;4454363;28;20079;-65
2022/03/09 01:07:17;;;;;;;4.10;2.90;;;;;;;;;;4428670;28;20078;-65
2022/03/09 01:09:27;;;;;;;3.90;3.10;;;;;;;;;;4452614;28;20290;-65
2022/03/09 01:11:37;;;;;;;3.37;2.73;;;;;;;;;;4434430;28;34055;-65
2022/03/09 01:13:48;;;;;;;3.93;3.20;;;;;;;;;;4434011;28;37814;-65
2022/03/09 01:15:58;;;;;;;5.07;3.23;;;;;;;;;;4453981;28;20590;-65
2022/03/09 01:18:09;;;;;;;5.23;3.27;;;;;;;;;;4436114;28;20028;-65
2022/03/09 01:20:19;;;;;;;4.60;3.43;;;;;;;;;;4453847;28;20035;-65
2022/03/09 01:22:30;;;;;;;4.97;3.63;;;;;;;;;;4454355;28;20043;-65
2022/03/09 01:24:40;;;;;;;4.70;3.10;;;;;;;;;;4444727;28;20090;-65
2022/03/09 01:26:51;;;;;;;4.50;3.40;;;;;;;;;;4435382;28;20563;-65
2022/03/09 01:29:02;;;;;;;4.18;2.88;;;;;;;;;;4451496;28;20031;-65
2022/03/09 01:31:12;;;;;;;4.20;3.20;;;;;;;;;;4454431;28;20031;-65
2022/03/09 01:33:23;;;;;;;4.63;3.30;;;;;;;;;;4452044;28;20490;-65
2022/03/09 01:35:33;;;;;;;4.17;3.30;;;;;;;;;;4453301;28;20024;-65
2022/03/09 01:37:45;;;;;;;7.00;3.40;;;;;;;;;;4452015;28;20035;-65
2022/03/09 01:39:56;;;;;;;5.57;3.28;;;;;;;;;;4452237;28;20021;-65
2022/03/09 01:42:07;;;;;;;4.13;3.20;;;;;;;;;;4453991;28;20051;-66
2022/03/09 01:44:19;;;;;;;4.03;2.83;;;;;;;;;;4428943;28;20032;-65
2022/03/09 01:46:30;;;;;;;4.22;3.38;;;;;;;;;;4436077;28;20032;-65
2022/03/09 01:48:40;;;;;;;4.20;3.40;;;;;;;;;;4452329;28;24934;-65
2022/03/09 01:50:51;;;;;;;4.83;3.63;;;;;;;;;;4452203;28;20035;-65
2022/03/09 01:53:01;;;;;;;5.20;3.47;;;;;;;;;;4437421;28;20455;-65
2022/03/09 01:55:12;;;;;;;4.60;3.37;;;;;;;;;;4451023;28;37220;-65
2022/03/09 01:57:22;;;;;;;4.13;3.07;;;;;;;;;;4438949;28;20032;-65
2022/03/09 01:59:34;;;;;;;3.72;3.10;;;;;;;;;;4451644;28;20652;-65
2022/03/09 02:01:45;;;;;;;4.67;3.13;;;;;;;;;;4435376;28;20043;-65
2022/03/09 02:03:56;;;;;;;;;;;;;;;;;;4452260;28;20031;-65
2022/03/09 02:06:07;;;;;;;4.90;3.65;;;;;;;;;;4512259;28;19905;-65
2022/03/09 02:10:48;;;;;;;4.47;3.10;;;;;;;;;;4451013;28;20798;-65
2022/03/09 02:12:58;;;;;;;5.25;3.50;;;;;;;;;;4437626;28;20065;-65
2022/03/09 02:15:08;;;;;;;5.07;3.43;;;;;;;;;;4452789;28;20487;-65
2022/03/09 02:17:24;;;;;;;4.33;3.40;;;;;;;;;;4454548;28;20019;-64
2022/03/09 02:19:35;;;;;;;4.63;3.53;;;;;;;;;;4453098;28;20578;-65
2022/03/09 02:21:45;;;;;;;4.77;3.53;;;;;;;;;;4452613;28;37283;-65
2022/03/09 02:23:56;;;;;;;4.83;3.40;;;;;;;;;;4438366;28;21951;-65
2022/03/09 02:26:06;;;;;;;4.67;3.40;;;;;;;;;;4454985;28;20177;-65
2022/03/09 02:28:17;;;;;;;5.03;3.73;;;;;;;;;;4454945;28;20035;-65
2022/03/09 02:30:27;;;;;;;4.63;3.33;;;;;;;;;;4454926;28;20036;-66
2022/03/09 02:32:42;;;;;;;4.87;3.33;;;;;;;;;;4454181;28;20043;-65
2022/03/09 02:34:53;;;;;;;3.65;2.88;;;;;;;;;;4437932;28;20621;-65
2022/03/09 02:37:03;;;;;;;4.60;3.27;;;;;;;;;;4454105;28;31323;-65
2022/03/09 02:39:13;;;;;;;4.30;3.00;;;;;;;;;;4455984;28;33831;-65
2022/03/09 02:41:26;;;;;;;4.83;3.03;;;;;;;;;;4454416;28;20046;-66
2022/03/09 02:43:36;;;;;;;3.92;3.03;;;;;;;;;;4455278;28;20039;-65
2022/03/09 02:45:47;;;;;;;4.37;3.20;;;;;;;;;;4453169;28;20089;-65
2022/03/09 02:47:57;;;;;;;4.50;3.13;;;;;;;;;;4454281;28;20027;-65
2022/03/09 02:50:08;;;;;;;5.20;3.37;;;;;;;;;;4442808;28;20049;-65
2022/03/09 02:52:18;;;;;;;5.28;3.38;;;;;;;;;;4436809;28;20031;-65
2022/03/09 02:54:29;;;;;;;3.83;3.10;;;;;;;;;;4455672;28;20054;-66
2022/03/09 02:56:39;;;;;;;4.43;3.00;;;;;;;;;;4453564;28;20039;-64
2022/03/09 02:58:50;;;;;;;5.03;3.17;;;;;;;;;;4454774;28;20035;-65
2022/03/09 03:01:00;;;;;;;3.63;2.73;;;;;;;;;;4456419;28;20078;-65
2022/03/09 03:03:11;;;;;;;4.23;3.33;;;;;;;;;;4454553;28;36167;-65
2022/03/09 03:05:21;;;;;;;5.37;3.10;;;;;;;;;;4454144;28;24587;-65
2022/03/09 03:07:32;;;;;;;3.50;2.90;;;;;;;;;;4436952;28;20509;-65
2022/03/09 03:09:42;;;;;;;4.13;3.10;;;;;;;;;;4455570;28;20573;-65
2022/03/09 03:11:52;;;;;;;4.27;2.93;;;;;;;;;;4446535;28;20031;-65
2022/03/09 03:14:03;;;;;;;4.37;3.17;;;;;;;;;;4454610;28;20027;-65
2022/03/09 03:16:13;;;;;;;5.17;3.23;;;;;;;;;;4453500;28;20023;-65
2022/03/09 03:18:24;;;;;;;4.20;3.20;;;;;;;;;;4453066;28;43615;-65
2022/03/09 03:20:34;;;;;;;4.57;3.20;;;;;;;;;;4454854;28;20348;-65
2022/03/09 03:22:44;;;;;;;4.87;3.10;;;;;;;;;;4437494;28;20842;-67
2022/03/09 03:24:55;;;;;;;4.10;3.10;;;;;;;;;;4454670;28;42264;-65
2022/03/09 03:27:05;;;;;;;5.07;3.60;;;;;;;;;;4454155;28;33707;-65
2022/03/09 03:29:15;;;;;;;4.40;3.40;;;;;;;;;;4454928;28;20038;-65
2022/03/09 03:31:29;;;;;;;4.43;3.00;;;;;;;;;;4454675;28;20479;-65
2022/03/09 03:33:39;;;;;;;4.85;3.42;;;;;;;;;;4447235;28;20020;-66
2022/03/09 03:35:50;;;;;;;4.80;3.03;;;;;;;;;;4454411;28;28740;-65
2022/03/09 03:38:00;;;;;;;4.20;3.30;;;;;;;;;;4453726;28;20031;-65
2022/03/09 03:40:11;;;;;;;4.77;3.20;;;;;;;;;;4434020;28;20453;-65
2022/03/09 03:42:22;;;;;;;5.60;3.67;;;;;;;;;;4454656;28;20031;-65
2022/03/09 03:44:32;;;;;;;4.97;3.50;;;;;;;;;;4454522;28;20233;-65
2022/03/09 03:46:44;;;;;;;4.43;3.33;;;;;;;;;;4454990;28;20027;-65
2022/03/09 03:48:54;;;;;;;4.20;3.08;;;;;;;;;;4437375;28;20589;-65
2022/03/09 03:51:04;;;;;;;3.80;2.83;;;;;;;;;;4453096;28;20027;-64
2022/03/09 03:53:15;;;;;;;3.87;3.07;;;;;;;;;;4454581;28;30963;-65
2022/03/09 03:55:26;;;;;;;6.13;3.37;;;;;;;;;;4454850;28;20035;-65
2022/03/09 03:57:36;;;;;;;4.17;3.27;;;;;;;;;;4430971;28;20024;-65
2022/03/09 03:59:46;;;;;;;4.43;3.07;;;;;;;;;;4436258;28;20555;-65
2022/03/09 04:01:59;;;;;;;4.80;3.30;;;;;;;;;;4437361;28;20052;-65
2022/03/09 04:04:09;;;;;;;4.32;3.30;;;;;;;;;;4453782;28;20514;-65
2022/03/09 04:06:19;;;;;;;4.37;3.30;;;;;;;;;;4437991;28;31558;-65
2022/03/09 04:08:30;;;;;;;4.57;3.40;;;;;;;;;;4454608;28;20088;-65
2022/03/09 04:10:40;;;;;;;5.40;3.50;;;;;;;;;;4453138;28;20722;-66
2022/03/09 04:12:51;;;;;;;4.13;3.37;;;;;;;;;;4452907;28;21549;-65
2022/03/09 04:15:01;;;;;;;4.67;3.20;;;;;;;;;;4454042;28;20758;-65
2022/03/09 04:17:12;;;;;;;3.78;3.20;;;;;;;;;;4434465;28;20019;-65
2022/03/09 04:19:23;;;;;;;5.97;3.70;;;;;;;;;;4452565;28;20039;-65
2022/03/09 04:21:33;;;;;;;4.23;3.13;;;;;;;;;;4452370;28;20046;-65
2022/03/09 04:23:44;;;;;;;4.70;3.33;;;;;;;;;;4438645;28;34751;-65
2022/03/09 04:25:54;;;;;;;4.03;3.17;;;;;;;;;;4439536;28;20023;-65
2022/03/09 04:28:05;;;;;;;4.77;3.30;;;;;;;;;;4452201;28;20549;-65
2022/03/09 04:30:15;;;;;;;4.50;3.10;;;;;;;;;;4453854;28;20034;-65
2022/03/09 04:32:26;;;;;;;4.83;3.23;;;;;;;;;;4438229;28;20032;-65
2022/03/09 04:34:37;;;;;;;3.80;2.83;;;;;;;;;;4453359;28;20093;-65
2022/03/09 04:36:47;;;;;;;4.13;3.17;;;;;;;;;;4453199;28;20035;-65
2022/03/09 04:38:58;;;;;;;4.97;3.63;;;;;;;;;;4452974;28;20054;-64
2022/03/09 04:41:09;;;;;;;4.05;2.83;;;;;;;;;;4453089;28;20039;-65
2022/03/09 04:43:19;;;;;;;4.20;3.20;;;;;;;;;;4437041;28;20031;-65
2022/03/09 04:45:30;;;;;;;5.00;3.37;;;;;;;;;;4453226;28;20027;-65
2022/03/09 04:47:40;;;;;;;4.00;3.07;;;;;;;;;;4440415;28;20028;-64
2022/03/09 04:49:51;;;;;;;4.57;3.08;;;;;;;;;;4454108;28;20070;-65
2022/03/09 04:52:03;;;;;;;3.88;3.13;;;;;;;;;;4451813;28;20031;-65
2022/03/09 04:54:13;;;;;;;4.13;2.97;;;;;;;;;;4451796;28;20031;-65
2022/03/09 04:56:26;;;;;;;4.28;3.15;;;;;;;;;;4453550;28;20730;-65
2022/03/09 04:58:37;;;;;;;4.67;3.03;;;;;;;;;;4453321;28;20397;-65
2022/03/09 05:00:47;;;;;;;4.70;3.13;;;;;;;;;;4452278;28;20027;-65
2022/03/09 05:02:57;;;;;;;4.03;3.43;;;;;;;;;;4434990;28;20050;-66
2022/03/09 05:05:08;;;;;;;5.07;3.17;;;;;;;;;;4440732;28;20035;-65
2022/03/09 05:07:18;;;;;;;3.90;3.10;;;;;;;;;;4444897;28;20521;-65
2022/03/09 05:09:29;;;;;;;3.77;3.10;;;;;;;;;;4452349;28;20028;-65
2022/03/09 05:11:39;;;;;;;4.67;3.33;;;;;;;;;;4423676;28;20127;-65
2022/03/09 05:13:50;;;;;;;5.63;2.83;;;;;;;;;;4451737;28;20019;-65
2022/03/09 05:16:00;;;;;;;5.57;3.30;;;;;;;;;;4453467;28;20035;-65
2022/03/09 05:18:11;;;;;;;4.87;3.20;;;;;;;;;;4451511;28;20059;-65
2022/03/09 05:20:21;;;;;;;5.07;3.03;;;;;;;;;;4438710;28;20031;-65
2022/03/09 05:22:32;;;;;;;4.50;3.27;;;;;;;;;;4435052;28;20035;-65
2022/03/09 05:24:42;;;;;;;4.93;3.40;;;;;;;;;;4451315;28;20049;-65
2022/03/09 05:26:53;;;;;;;4.47;3.47;;;;;;;;;;4440142;28;20099;-65
2022/03/09 05:29:04;;;;;;;4.57;3.07;;;;;;;;;;4451845;28;20035;-65
2022/03/09 05:31:14;;;;;;;5.20;3.30;;;;;;;;;;4453729;28;20050;-65
2022/03/09 05:33:25;;;;;;;3.77;2.97;;;;;;;;;;4451728;28;24591;-65
2022/03/09 05:35:37;;;;;;;5.03;3.37;;;;;;;;;;4452692;28;20031;-65
2022/03/09 05:37:47;;;;;;;4.72;3.40;;;;;;;;;;4452402;28;20580;-65
2022/03/09 05:39:58;;;;;;;5.50;3.40;;;;;;;;;;4439917;28;20023;-65
2022/03/09 05:42:08;;;;;;;5.37;3.57;;;;;;;;;;4453366;28;20046;-65
2022/03/09 05:44:19;;;;;;;6.30;3.77;;;;;;;;;;4452471;28;20027;-65
2022/03/09 05:46:30;;;;;;;5.43;3.57;;;;;;;;;;4450905;28;20476;-65
2022/03/09 05:48:40;;;;;;;4.72;3.35;;;;;;;;;;4451662;28;20578;-65
2022/03/09 05:50:51;;;;;;;5.17;3.33;;;;;;;;;;4452261;28;20097;-65
2022/03/09 05:53:01;;;;;;;5.80;3.53;;;;;;;;;;4453736;28;21306;-65
2022/03/09 05:55:12;;;;;;;4.13;3.20;;;;;;;;;;4452097;28;20071;-65
2022/03/09 05:57:22;;;;;;;4.63;3.30;;;;;;;;;;4435539;28;20031;-65
2022/03/09 05:59:32;;;;;;;5.07;3.33;;;;;;;;;;4435548;28;20036;-65
2022/03/09 06:01:43;;;;;;;4.37;3.30;;;;;;;;;;4439414;28;20082;-65
2022/03/09 06:03:54;;;;;;;3.73;3.00;;;;;;;;;;4453759;28;20096;-65
2022/03/09 06:06:05;;;;;;;4.90;3.20;;;;;;;;;;4437898;28;20028;-65
2022/03/09 06:08:16;;;;;;;4.33;2.80;;;;;;;;;;4454445;28;20079;-65
2022/03/09 06:10:26;;;;;;;4.75;3.40;;;;;;;;;;4433515;28;20034;-65
2022/03/09 06:12:37;;;;;;;5.27;3.07;;;;;;;;;;4429909;28;20035;-65
2022/03/09 06:14:47;;;;;;;4.27;3.00;;;;;;;;;;4452344;28;20053;-65
2022/03/09 06:16:57;;;;;;;4.90;3.33;;;;;;;;;;4454212;28;20076;-65
2022/03/09 06:19:08;;;;;;;3.63;3.00;;;;;;;;;;4436695;28;20032;-65
2022/03/09 06:21:18;;;;;;;4.23;3.27;;;;;;;;;;4452904;28;27012;-65
2022/03/09 06:23:29;;;;;;;5.03;3.30;;;;;;;;;;4437290;28;35302;-65
2022/03/09 06:25:39;;;;;;;5.20;3.50;;;;;;;;;;4453026;28;20051;-65
2022/03/09 06:27:51;;;;;;;4.73;3.30;;;;;;;;;;4455045;28;20039;-65
2022/03/09 06:30:02;;;;;;;5.60;3.40;;;;;;;;;;4430315;28;20032;-65
2022/03/09 06:32:12;;;;;;;4.17;2.97;;;;;;;;;;4437409;28;20400;-65
2022/03/09 06:34:23;;;;;;;4.87;3.30;;;;;;;;;;4452608;28;20071;-65
2022/03/09 06:36:33;;;;;;;4.87;3.50;;;;;;;;;;4453587;28;20023;-65
2022/03/09 06:38:43;;;;;;;5.03;3.43;;;;;;;;;;4452856;28;20501;-65
2022/03/09 06:40:54;;;;;;;4.80;3.23;;;;;;;;;;4452103;28;20120;-65
2022/03/09 06:43:05;;;;;;;4.53;3.28;;;;;;;;;;4452792;28;20034;-65
2022/03/09 06:45:16;;;;;;;5.30;3.17;;;;;;;;;;4436082;28;20534;-65
2022/03/09 06:47:26;;;;;;;5.23;3.50;;;;;;;;;;4436182;28;20043;-65
2022/03/09 06:49:37;;;;;;;5.83;3.37;;;;;;;;;;4427165;28;20031;-65
2022/03/09 06:51:48;;;;;;;3.85;3.05;;;;;;;;;;4453639;28;20031;-64
2022/03/09 06:53:59;;;;;;;;;;;;;;;;;;4453732;28;20137;-64
2022/03/09 06:56:10;;;;;;;4.47;3.15;;;;;;;;;;4520559;28;20356;-65
2022/03/09 06:58:20;;;;;;;5.10;3.23;;;;;;;;;;4447528;28;20065;-64
2022/03/09 07:00:31;;;;;;;6.60;3.23;;;;;;;;;;4452528;28;20027;-65
2022/03/09 07:02:42;;;;;;;5.40;3.60;;;;;;;;;;4453583;28;20047;-65
2022/03/09 07:04:52;;;;;;;5.03;3.15;;;;;;;;;;4429733;28;20747;-65
2022/03/09 07:07:03;;;;;;;4.07;3.20;;;;;;;;;;4438229;28;20039;-65
2022/03/09 07:09:14;;;;;;;4.53;3.30;;;;;;;;;;4455868;28;20024;-65
2022/03/09 07:11:25;;;;;;;6.10;3.50;;;;;;;;;;4453122;28;20024;-65
2022/03/09 07:13:35;;;;;;;5.37;3.50;;;;;;;;;;4435613;28;20035;-65
2022/03/09 07:15:46;;;;;;;4.80;3.30;;;;;;;;;;4454251;28;20028;-65
2022/03/09 07:17:56;;;;;;;5.10;3.20;;;;;;;;;;4453214;28;20452;-65
2022/03/09 07:20:08;;;;;;;4.93;3.30;;;;;;;;;;4453758;28;20031;-66
2022/03/09 07:22:18;;;;;;;4.07;3.20;;;;;;;;;;4453467;28;20142;-65
2022/03/09 07:24:29;;;;;;;4.93;3.33;;;;;;;;;;4454554;28;20484;-64
2022/03/09 07:26:40;;;;;;;5.10;3.10;;;;;;;;;;4453824;28;20032;-65
2022/03/09 07:28:51;;;;;;;4.68;3.47;;;;;;;;;;4445070;28;20159;-64
2022/03/09 07:31:01;;;;;;;4.23;3.03;;;;;;;;;;4454523;28;20818;-65
2022/03/09 07:33:11;;;;;;;4.73;3.33;;;;;;;;;;4453442;28;20019;-65
2022/03/09 07:35:22;;;;;;;4.43;2.87;;;;;;;;;;4441332;28;20177;-65
2022/03/09 07:37:32;;;;;;;4.60;3.20;;;;;;;;;;4436484;28;20024;-65
2022/03/09 07:39:43;;;;;;;5.70;3.40;;;;;;;;;;4452555;28;20028;-65
2022/03/09 07:41:54;;;;;;;6.17;3.83;;;;;;;;;;4454132;28;20046;-65
2022/03/09 07:44:05;;;;;;;;;;;;;;;;;;4452723;28;20027;-65
2022/03/09 07:46:15;;;;;;;5.20;3.20;;;;;;;;;;4452802;28;19915;-65
2022/03/09 07:48:26;;;;;;;4.93;3.47;;;;;;;;;;4453093;28;20042;-65
2022/03/09 07:50:36;;;;;;;4.63;3.10;;;;;;;;;;4454711;28;20031;-64
2022/03/09 07:52:47;;;;;;;4.93;3.30;;;;;;;;;;4453510;28;20743;-65
2022/03/09 07:54:58;;;;;;;4.63;3.40;;;;;;;;;;4452716;28;20030;-65
2022/03/09 07:57:08;;;;;;;4.87;3.13;;;;;;;;;;4453613;28;20031;-65
2022/03/09 07:59:19;;;;;;;4.33;3.00;;;;;;;;;;4453291;28;20502;-65
2022/03/09 08:01:29;;;;;;;4.90;3.13;;;;;;;;;;4453924;28;20051;-65
2022/03/09 08:03:40;;;;;;;5.03;3.20;;;;;;;;;;4452571;28;21853;-65
2022/03/09 08:05:51;;;;;;;4.13;3.20;;;;;;;;;;4424363;28;20588;-65
2022/03/09 08:08:01;;;;;;;4.57;3.30;;;;;;;;;;4453572;28;21053;-64
2022/03/09 08:10:12;;;;;;;4.93;3.03;;;;;;;;;;4452126;28;20078;-64
2022/03/09 08:12:23;;;;;;;4.83;2.70;;;;;;;;;;4452482;28;20472;-64
2022/03/09 08:14:33;;;;;;;4.00;2.83;;;;;;;;;;4453359;28;20621;-63
2022/03/09 08:16:44;;;;;;;3.63;2.77;;;;;;;;;;4452675;28;20270;-64
2022/03/09 08:18:54;;;;;;;3.70;2.83;;;;;;;;;;4442925;28;20020;-64
2022/03/09 08:21:05;;;;;;;5.47;3.05;;;;;;;;;;4453763;28;20026;-65
2022/03/09 08:23:15;;;;;;;4.90;3.00;;;;;;;;;;4451510;28;20031;-65
2022/03/09 08:25:26;;;;;;;3.93;2.87;;;;;;;;;;4452566;28;20028;-65
2022/03/09 08:27:37;;;;;;;4.30;3.10;;;;;;;;;;4434469;28;21392;-65
2022/03/09 08:29:50;;;;;;;5.00;3.50;;;;;;;;;;4434656;28;20055;-65
2022/03/09 08:32:00;;;;;;;4.38;3.20;;;;;;;;;;4436259;28;20074;-65
2022/03/09 08:34:10;;;;;;;4.87;2.90;;;;;;;;;;4452801;28;20035;-65
2022/03/09 08:36:21;;;;;;;4.33;3.10;;;;;;;;;;4452866;28;20038;-65
2022/03/09 08:38:32;;;;;;;6.38;3.58;;;;;;;;;;4428579;28;20035;-64
2022/03/09 08:40:43;;;;;;;5.10;3.30;;;;;;;;;;4452220;28;20039;-65
2022/03/09 08:42:53;;;;;;;6.90;3.50;;;;;;;;;;4452841;28;20628;-65
2022/03/09 08:45:04;;;;;;;5.13;3.40;;;;;;;;;;4434198;28;20461;-64
2022/03/09 08:47:14;;;;;;;4.30;3.07;;;;;;;;;;4452860;28;20795;-65
2022/03/09 08:49:25;;;;;;;5.03;3.03;;;;;;;;;;4452085;28;20023;-65
2022/03/09 08:51:37;;;;;;;3.57;2.80;;;;;;;;;;4453008;28;20038;-64
2022/03/09 08:53:48;;;;;;;5.43;3.17;;;;;;;;;;4451944;28;20601;-64
2022/03/09 08:55:59;;;;;;;5.63;3.30;;;;;;;;;;4452159;28;20062;-64
2022/03/09 08:58:09;;;;;;;4.87;3.13;;;;;;;;;;4422826;28;20127;-65
2022/03/09 09:00:20;;;;;;;3.33;2.57;;;;;;;;;;4429587;28;20424;-65
2022/03/09 09:02:30;;;;;;;4.73;3.30;;;;;;;;;;4444448;28;26534;-65
2022/03/09 09:04:41;;;;;;;4.70;3.13;;;;;;;;;;4451589;28;20023;-65
2022/03/09 09:06:52;;;;;;;5.73;3.17;;;;;;;;;;4453342;28;20108;-65
2022/03/09 09:09:02;;;;;;;3.80;2.87;;;;;;;;;;4451500;28;20473;-65
2022/03/09 09:11:12;;;;;;;5.10;3.13;;;;;;;;;;4452041;28;20030;-65
2022/03/09 09:13:23;;;;;;;4.87;3.40;;;;;;;;;;4451460;28;43497;-64
2022/03/09 09:15:33;;;;;;;4.67;3.00;;;;;;;;;;4452388;28;20028;-64
2022/03/09 09:17:44;;;;;;;4.37;3.00;;;;;;;;;;4433896;28;20027;-65
2022/03/09 09:19:54;;;;;;;4.43;2.90;;;;;;;;;;4453218;28;21091;-65
2022/03/09 09:22:05;;;;;;;4.27;2.87;;;;;;;;;;4444185;28;20050;-65
2022/03/09 09:24:15;;;;;;;4.17;2.83;;;;;;;;;;4452307;28;20042;-65
2022/03/09 09:26:25;;;;;;;4.30;3.10;;;;;;;;;;4445864;28;20031;-65
2022/03/09 09:28:36;;;;;;;5.23;2.77;;;;;;;;;;4453403;28;20050;-65
2022/03/09 09:30:47;;;;;;;6.07;3.40;;;;;;;;;;4451089;28;32734;-65
2022/03/09 09:32:59;;;;;;;5.13;3.20;;;;;;;;;;4434866;28;20143;-65
2022/03/09 09:35:10;;;;;;;;;;;;;;;;;;4443503;28;20027;-65
2022/03/09 09:37:21;;;;;;;4.43;2.97;;;;;;;;;;4452026;28;19921;-65
2022/03/09 09:39:31;;;;;;;3.67;2.90;;;;;;;;;;4452108;28;20042;-65
2022/03/09 09:41:43;;;;;;;5.33;3.20;;;;;;;;;;4439464;28;20085;-65
2022/03/09 09:43:54;;;;;;;4.72;3.03;;;;;;;;;;4452647;28;21002;-65
2022/03/09 09:46:04;;;;;;;3.93;3.03;;;;;;;;;;4446702;28;23780;-65
2022/03/09 09:48:15;;;;;;;5.30;3.07;;;;;;;;;;4453206;28;20027;-65
2022/03/09 09:50:25;;;;;;;3.57;2.70;;;;;;;;;;4435993;28;20039;-65
2022/03/09 09:52:36;;;;;;;4.37;3.10;;;;;;;;;;4451355;28;20402;-65
2022/03/09 09:54:52;;;;;;;4.95;3.30;;;;;;;;;;4450826;28;20096;-63
2022/03/09 09:57:03;;;;;;;5.03;2.85;;;;;;;;;;4453070;28;20035;-64
2022/03/09 09:59:14;;;;;;;5.57;3.10;;;;;;;;;;4443803;28;20027;-64
2022/03/09 10:01:24;;;;;;;4.50;3.10;;;;;;;;;;4451812;28;20047;-64
2022/03/09 10:03:35;;;;;;;3.87;2.80;;;;;;;;;;4438135;28;20032;-63
2022/03/09 10:05:45;;;;;;;6.10;3.20;;;;;;;;;;4443652;28;20043;-63
2022/03/09 10:08:05;;;;;;;4.63;3.27;;;;;;;;;;4450246;28;20031;-63
2022/03/09 10:10:18;;;;;;;4.68;3.13;;;;;;;;;;4453602;28;20034;-62
2022/03/09 10:12:29;;;;;;;5.10;3.40;;;;;;;;;;4436678;28;20015;-63
2022/03/09 10:14:50;;;;;;;5.57;3.43;;;;;;;;;;4431965;28;20059;-63
2022/03/09 10:17:07;;;;;;;5.18;3.20;;;;;;;;;;4434102;28;20082;-63
2022/03/09 10:19:35;;;;;;;4.65;3.28;;;;;;;;;;4434160;28;20583;-63
2022/03/09 10:21:45;;;;;;;4.38;3.08;;;;;;;;;;4452459;28;20043;-63
2022/03/09 10:24:04;;;;;;;6.00;3.30;;;;;;;;;;4452694;28;20023;-63
2022/03/09 10:26:14;;;;;;;5.20;3.35;;;;;;;;;;4452473;28;20130;-63
2022/03/09 10:28:24;;;;;;;4.10;3.23;;;;;;;;;;4450555;28;20042;-64
2022/03/09 10:30:40;;;;;;;6.07;2.93;;;;;;;;;;4450469;28;20023;-64
2022/03/09 10:32:59;;;;;;;3.95;2.90;;;;;;;;;;4443222;28;20024;-64
2022/03/09 10:35:10;;;;;;;5.82;3.50;;;;;;;;;;4426435;28;21132;-63
2022/03/09 10:37:21;;;;;;;5.47;3.08;;;;;;;;;;4450820;28;20076;-63
2022/03/09 10:39:34;;;;;;;4.77;3.17;;;;;;;;;;4427323;28;20105;-64
2022/03/09 10:41:44;;;;;;;4.50;3.10;;;;;;;;;;4438025;28;20831;-63
2022/03/09 10:43:55;;;;;;;4.70;3.30;;;;;;;;;;4451087;28;20038;-62
2022/03/09 10:46:11;;;;;;;4.70;3.17;;;;;;;;;;4442415;28;20093;-63
2022/03/09 10:48:21;;;;;;;5.05;3.17;;;;;;;;;;4454004;28;20058;-65
2022/03/09 10:50:32;;;;;;;5.77;3.57;;;;;;;;;;4452592;28;20109;-65
2022/03/09 10:52:52;;;;;;;4.73;3.17;;;;;;;;;;4453674;28;20754;-65
2022/03/09 10:55:23;;;;;;;5.05;3.38;;;;;;;;;;4435649;28;20946;-65
2022/03/09 10:57:33;;;;;;;4.85;3.00;;;;;;;;;;4452430;28;20036;-65
2022/03/09 10:59:51;;;;;;;5.27;3.70;;;;;;;;;;4436043;28;20361;-64
2022/03/09 11:02:09;;;;;;;5.47;3.55;;;;;;;;;;4453163;28;20772;-65
2022/03/09 11:04:20;;;;;;;4.57;3.15;;;;;;;;;;4453294;28;20035;-65
2022/03/09 11:06:30;;;;;;;4.97;3.50;;;;;;;;;;4452886;28;20011;-65
2022/03/09 11:08:41;;;;;;;5.70;3.77;;;;;;;;;;4436233;28;20539;-65
2022/03/09 11:10:54;;;;;;;4.70;3.13;;;;;;;;;;4452480;28;20125;-65
2022/03/09 11:13:05;;;;;;;4.65;3.30;;;;;;;;;;4444437;28;20023;-65
2022/03/09 11:15:16;;;;;;;5.60;3.20;;;;;;;;;;4453652;28;20484;-65
2022/03/09 11:17:26;;;;;;;5.00;3.33;;;;;;;;;;4452946;28;20016;-75
2022/03/09 11:19:38;;;;;;;6.27;3.60;;;;;;;;;;4439044;28;20024;-68
2022/03/09 11:21:48;;;;;;;5.22;3.40;;;;;;;;;;4435945;28;20059;-68
2022/03/09 11:23:59;;;;;;;5.27;3.23;;;;;;;;;;4451889;28;20031;-68
2022/03/09 11:26:40;;;;;;;5.27;3.60;;;;;;;;;;4452177;28;20054;-68
2022/03/09 11:28:59;;;;;;;6.05;3.70;;;;;;;;;;4405795;28;20296;-69
2022/03/09 11:31:15;;;;;;;6.63;3.25;;;;;;;;;;4452069;28;20039;-68
2022/03/09 11:33:46;;;;;;;4.97;3.20;;;;;;;;;;4436387;28;20087;-68
2022/03/09 11:35:57;;;;;;;4.55;3.03;;;;;;;;;;4438721;28;20038;-68
2022/03/09 11:38:37;;;;;;;5.57;3.63;;;;;;;;;;4452753;28;20027;-67
2022/03/09 11:41:12;;;;;;;4.70;3.28;;;;;;;;;;4442034;28;20575;-68
2022/03/09 11:43:27;;;;;;;5.50;3.47;;;;;;;;;;4452437;28;20051;-68
2022/03/09 11:45:37;;;;;;;4.55;2.90;;;;;;;;;;4453727;28;20019;-69
2022/03/09 11:47:58;;;;;;;4.53;2.83;;;;;;;;;;4421829;28;20794;-68
2022/03/09 11:50:09;;;;;;;4.90;2.95;;;;;;;;;;4445121;28;20027;-68
2022/03/09 11:52:25;;;;;;;4.25;2.78;;;;;;;;;;4451532;28;20589;-68
2022/03/09 11:54:56;;;;;;;4.63;2.78;;;;;;;;;;4451035;28;20135;-68
2022/03/09 11:57:07;;;;;;;4.32;2.60;;;;;;;;;;4451247;28;20039;-68
2022/03/09 11:59:18;;;;;;;4.80;2.83;;;;;;;;;;4452640;28;20597;-68
2022/03/09 12:01:28;;;;;;;5.72;3.00;;;;;;;;;;4453151;28;20047;-68
2022/03/09 12:03:40;;;;;;;5.80;2.80;;;;;;;;;;4452209;28;20023;-68
2022/03/09 12:05:51;;;;;;;4.55;2.60;;;;;;;;;;4451462;28;20027;-68
2022/03/09 12:08:23;;;;;;;4.43;2.53;;;;;;;;;;4452503;28;20027;-68
2022/03/09 12:10:41;;;;;;;4.53;2.50;;;;;;;;;;4451757;28;20026;-69
2022/03/09 12:13:33;;;;;;;3.85;2.58;;;;;;;;;;4449208;28;20028;-69
2022/03/09 12:16:02;;;;;;;3.55;2.45;;;;;;;;;;4425649;28;20063;-69
2022/03/09 12:18:41;;;;;;;4.72;2.50;;;;;;;;;;4452446;28;20027;-69
2022/03/09 12:20:53;;;;;;;3.65;2.30;;;;;;;;;;4450886;28;20774;-68
2022/03/09 12:23:04;;;;;;;3.58;2.22;;;;;;;;;;4420032;28;20147;-68
2022/03/09 12:25:39;;;;;;;3.80;2.50;;;;;;;;;;4452930;28;20429;-68
2022/03/09 12:27:50;;;;;;;3.58;2.30;;;;;;;;;;4452061;28;20043;-69
2022/03/09 12:30:00;;;;;;;4.10;2.40;;;;;;;;;;4438526;28;28084;-67
2022/03/09 12:32:13;;;;;;;4.93;2.63;;;;;;;;;;4419430;28;20036;-68
2022/03/09 12:34:24;;;;;;;3.40;2.42;;;;;;;;;;4451640;28;20031;-68
2022/03/09 12:36:35;;;;;;;4.07;2.75;;;;;;;;;;4452060;28;20582;-69
2022/03/09 12:38:51;;;;;;;5.30;2.40;;;;;;;;;;4450396;28;22080;-68
2022/03/09 12:41:02;;;;;;;4.28;2.80;;;;;;;;;;4428069;28;20031;-68
2022/03/09 12:43:15;;;;;;;3.63;2.60;;;;;;;;;;4443533;28;20038;-68
2022/03/09 12:45:25;;;;;;;3.58;2.38;;;;;;;;;;4435160;28;20260;-68
2022/03/09 12:47:36;;;;;;;4.53;2.47;;;;;;;;;;4451269;28;20518;-68
2022/03/09 12:49:49;;;;;;;4.25;2.78;;;;;;;;;;4451228;28;20677;-69
2022/03/09 12:52:03;;;;;;;3.42;2.20;;;;;;;;;;4451831;28;20173;-68
2022/03/09 12:54:13;;;;;;;4.30;2.50;;;;;;;;;;4442960;28;20134;-68
2022/03/09 12:56:25;;;;;;;3.40;2.33;;;;;;;;;;4450600;28;20031;-67
2022/03/09 12:58:35;;;;;;;4.90;2.50;;;;;;;;;;4421104;28;20028;-68
2022/03/09 13:00:46;;;;;;;4.80;2.80;;;;;;;;;;4437016;28;20043;-67
2022/03/09 13:03:00;;;;;;;4.13;2.70;;;;;;;;;;4449920;28;20746;-68
2022/03/09 13:05:14;;;;;;;3.38;2.25;;;;;;;;;;4458066;28;20066;-69
2022/03/09 13:07:25;;;;;;;4.10;2.45;;;;;;;;;;4449090;28;20091;-68
2022/03/09 13:09:36;;;;;;;3.80;2.20;;;;;;;;;;4451074;28;20118;-68
2022/03/09 13:11:47;;;;;;;2.73;2.03;;;;;;;;;;4434390;28;20499;-68
2022/03/09 13:13:58;;;;;;;3.63;2.40;;;;;;;;;;4433932;28;20042;-68
2022/03/09 13:16:09;;;;;;;;;;;;;;;;;;4449795;28;20028;-67